sensor_id;sensor_type;location;lat;lon;timestamp;pressure;altitude;pressure_sealevel;temperature;humidity
26865;BME280;40618;51.166;10.322;2023-04-23T00:00:35;96615.19;;;14.61;57.92
26865;BME280;40618;51.166;10.322;2023-04-23T00:03:05;96609.28;;;14.58;58.26
26865;BME280;40618;51.166;10.322;2023-04-23T00:05:34;96601.84;;;14.51;58.23
26865;BME280;40618;51.166;10.322;2023-04-23T00:08:04;96600.25;;;14.49;58.60
26865;BME280;40618;51.166;10.322;2023-04-23T00:10:30;96599.50;;;14.47;58.45
26865;BME280;40618;51.166;10.322;2023-04-23T00:12:57;96593.63;;;14.43;58.48
26865;BME280;40618;51.166;10.322;2023-04-23T00:15:23;96597.25;;;14.41;58.38
26865;BME280;40618;51.166;10.322;2023-04-23T00:17:49;96593.25;;;14.35;58.67
26865;BME280;40618;51.166;10.322;2023-04-23T00:20:15;96592.72;;;14.30;58.82
26865;BME280;40618;51.166;10.322;2023-04-23T00:22:42;96592.03;;;14.26;59.21
26865;BME280;40618;51.166;10.322;2023-04-23T00:25:09;96582.75;;;14.22;58.98
26865;BME280;40618;51.166;10.322;2023-04-23T00:27:35;96582.06;;;14.18;59.35
26865;BME280;40618;51.166;10.322;2023-04-23T00:30:01;96586.53;;;14.16;59.13
26865;BME280;40618;51.166;10.322;2023-04-23T00:32:28;96593.69;;;14.13;59.49
26865;BME280;40618;51.166;10.322;2023-04-23T00:34:54;96587.81;;;14.09;59.45
26865;BME280;40618;51.166;10.322;2023-04-23T00:37:20;96582.88;;;14.04;59.41
26865;BME280;40618;51.166;10.322;2023-04-23T00:39:46;96593.56;;;14.00;59.74
26865;BME280;40618;51.166;10.322;2023-04-23T00:42:12;96587.59;;;13.98;59.93
26865;BME280;40618;51.166;10.322;2023-04-23T00:44:39;96592.06;;;13.96;60.16
26865;BME280;40618;51.166;10.322;2023-04-23T00:47:07;96593.00;;;13.95;60.18
26865;BME280;40618;51.166;10.322;2023-04-23T00:49:33;96589.56;;;13.94;60.12
26865;BME280;40618;51.166;10.322;2023-04-23T00:51:59;96594.44;;;13.84;60.41
26865;BME280;40618;51.166;10.322;2023-04-23T00:54:26;96586.06;;;13.79;60.70
26865;BME280;40618;51.166;10.322;2023-04-23T00:56:52;96590.50;;;13.77;60.73
26865;BME280;40618;51.166;10.322;2023-04-23T00:59:19;96589.69;;;13.77;60.85
26865;BME280;40618;51.166;10.322;2023-04-23T01:01:46;96591.50;;;13.75;61.03
26865;BME280;40618;51.166;10.322;2023-04-23T01:04:16;96589.69;;;13.77;61.38
26865;BME280;40618;51.166;10.322;2023-04-23T01:06:43;96588.00;;;13.76;61.23
26865;BME280;40618;51.166;10.322;2023-04-23T01:09:11;96582.78;;;13.76;61.69
26865;BME280;40618;51.166;10.322;2023-04-23T01:11:38;96577.69;;;13.74;61.47
26865;BME280;40618;51.166;10.322;2023-04-23T01:14:07;96578.59;;;13.73;61.96
26865;BME280;40618;51.166;10.322;2023-04-23T01:16:34;96573.31;;;13.75;61.90
26865;BME280;40618;51.166;10.322;2023-04-23T01:19:00;96580.19;;;13.76;62.09
26865;BME280;40618;51.166;10.322;2023-04-23T01:21:27;96576.50;;;13.64;61.69
26865;BME280;40618;51.166;10.322;2023-04-23T01:23:54;96578.78;;;13.54;62.04
26865;BME280;40618;51.166;10.322;2023-04-23T01:26:20;96585.19;;;13.48;62.57
26865;BME280;40618;51.166;10.322;2023-04-23T01:28:47;96578.75;;;13.40;62.48
26865;BME280;40618;51.166;10.322;2023-04-23T01:31:15;96582.34;;;13.37;62.79
26865;BME280;40618;51.166;10.322;2023-04-23T01:33:42;96580.47;;;13.39;63.01
26865;BME280;40618;51.166;10.322;2023-04-23T01:36:09;96586.28;;;13.44;63.06
26865;BME280;40618;51.166;10.322;2023-04-23T01:38:37;96587.09;;;13.45;63.36
26865;BME280;40618;51.166;10.322;2023-04-23T01:41:03;96587.88;;;13.47;63.29
26865;BME280;40618;51.166;10.322;2023-04-23T01:43:30;96589.56;;;13.48;63.49
26865;BME280;40618;51.166;10.322;2023-04-23T01:45:57;96586.78;;;13.51;63.34
26865;BME280;40618;51.166;10.322;2023-04-23T01:48:23;96582.31;;;13.53;63.56
26865;BME280;40618;51.166;10.322;2023-04-23T01:50:50;96578.06;;;13.52;63.31
26865;BME280;40618;51.166;10.322;2023-04-23T01:53:16;96580.56;;;13.53;63.46
26865;BME280;40618;51.166;10.322;2023-04-23T01:55:46;96577.09;;;13.53;63.70
26865;BME280;40618;51.166;10.322;2023-04-23T01:58:12;96585.84;;;13.52;63.72
26865;BME280;40618;51.166;10.322;2023-04-23T02:00:38;96589.28;;;13.52;63.80
26865;BME280;40618;51.166;10.322;2023-04-23T02:03:04;96587.78;;;13.48;63.90
26865;BME280;40618;51.166;10.322;2023-04-23T02:05:33;96581.50;;;13.36;63.95
26865;BME280;40618;51.166;10.322;2023-04-23T02:08:00;96579.31;;;13.29;64.35
26865;BME280;40618;51.166;10.322;2023-04-23T02:10:26;96584.66;;;13.26;64.18
26865;BME280;40618;51.166;10.322;2023-04-23T02:12:53;96579.69;;;13.05;64.53
26865;BME280;40618;51.166;10.322;2023-04-23T02:15:19;96578.03;;;13.04;64.86
26865;BME280;40618;51.166;10.322;2023-04-23T02:17:45;96581.13;;;13.11;64.77
26865;BME280;40618;51.166;10.322;2023-04-23T02:20:11;96581.56;;;13.03;65.15
26865;BME280;40618;51.166;10.322;2023-04-23T02:22:40;96588.44;;;13.04;65.21
26865;BME280;40618;51.166;10.322;2023-04-23T02:25:07;96578.78;;;13.06;65.33
26865;BME280;40618;51.166;10.322;2023-04-23T02:27:34;96582.94;;;12.93;65.32
26865;BME280;40618;51.166;10.322;2023-04-23T02:30:00;96574.66;;;12.86;65.73
26865;BME280;40618;51.166;10.322;2023-04-23T02:32:26;96574.41;;;12.91;65.97
26865;BME280;40618;51.166;10.322;2023-04-23T02:34:52;96579.00;;;12.85;65.87
26865;BME280;40618;51.166;10.322;2023-04-23T02:37:18;96575.66;;;12.83;66.29
26865;BME280;40618;51.166;10.322;2023-04-23T02:39:43;96581.44;;;12.89;66.38
26865;BME280;40618;51.166;10.322;2023-04-23T02:42:10;96575.16;;;12.93;66.51
26865;BME280;40618;51.166;10.322;2023-04-23T02:44:35;96580.22;;;12.96;66.42
26865;BME280;40618;51.166;10.322;2023-04-23T02:47:01;96580.69;;;12.86;66.43
26865;BME280;40618;51.166;10.322;2023-04-23T02:49:27;96579.31;;;12.79;66.75
26865;BME280;40618;51.166;10.322;2023-04-23T02:51:52;96576.28;;;12.71;66.85
26865;BME280;40618;51.166;10.322;2023-04-23T02:54:18;96578.25;;;12.67;67.07
26865;BME280;40618;51.166;10.322;2023-04-23T02:56:44;96575.81;;;12.64;67.33
26865;BME280;40618;51.166;10.322;2023-04-23T02:59:09;96581.13;;;12.61;67.58
26865;BME280;40618;51.166;10.322;2023-04-23T03:01:35;96582.38;;;12.54;67.52
26865;BME280;40618;51.166;10.322;2023-04-23T03:04:01;96579.44;;;12.44;67.57
26865;BME280;40618;51.166;10.322;2023-04-23T03:06:28;96581.41;;;12.39;68.21
26865;BME280;40618;51.166;10.322;2023-04-23T03:08:56;96584.00;;;12.39;68.36
26865;BME280;40618;51.166;10.322;2023-04-23T03:11:21;96578.06;;;12.37;68.43
26865;BME280;40618;51.166;10.322;2023-04-23T03:13:47;96581.59;;;12.36;68.76
26865;BME280;40618;51.166;10.322;2023-04-23T03:16:13;96582.31;;;12.38;68.89
26865;BME280;40618;51.166;10.322;2023-04-23T03:18:39;96582.25;;;12.40;68.81
26865;BME280;40618;51.166;10.322;2023-04-23T03:21:05;96578.91;;;12.38;68.72
26865;BME280;40618;51.166;10.322;2023-04-23T03:23:30;96582.56;;;12.33;68.71
26865;BME280;40618;51.166;10.322;2023-04-23T03:25:56;96580.28;;;12.27;69.24
26865;BME280;40618;51.166;10.322;2023-04-23T03:28:22;96580.38;;;12.26;69.27
26865;BME280;40618;51.166;10.322;2023-04-23T03:30:48;96575.63;;;12.34;69.42
26865;BME280;40618;51.166;10.322;2023-04-23T03:33:14;96578.06;;;12.37;69.21
26865;BME280;40618;51.166;10.322;2023-04-23T03:35:39;96585.53;;;12.43;69.57
26865;BME280;40618;51.166;10.322;2023-04-23T03:38:05;96581.25;;;12.42;69.71
26865;BME280;40618;51.166;10.322;2023-04-23T03:40:31;96578.56;;;12.44;69.57
26865;BME280;40618;51.166;10.322;2023-04-23T03:42:57;96581.41;;;12.39;69.72
26865;BME280;40618;51.166;10.322;2023-04-23T03:45:23;96582.25;;;12.40;69.98
26865;BME280;40618;51.166;10.322;2023-04-23T03:47:49;96581.34;;;12.41;70.09
26865;BME280;40618;51.166;10.322;2023-04-23T03:50:15;96580.50;;;12.40;69.74
26865;BME280;40618;51.166;10.322;2023-04-23T03:52:41;96583.28;;;12.37;70.16
26865;BME280;40618;51.166;10.322;2023-04-23T03:55:07;96578.91;;;12.38;70.19
26865;BME280;40618;51.166;10.322;2023-04-23T03:57:34;96578.00;;;12.39;69.98
26865;BME280;40618;51.166;10.322;2023-04-23T04:00:01;96587.44;;;12.40;70.26
26865;BME280;40618;51.166;10.322;2023-04-23T04:02:28;96588.38;;;12.39;70.27
26865;BME280;40618;51.166;10.322;2023-04-23T04:04:53;96590.13;;;12.38;70.59
26865;BME280;40618;51.166;10.322;2023-04-23T04:07:20;96585.00;;;12.36;70.50
26865;BME280;40618;51.166;10.322;2023-04-23T04:09:46;96586.16;;;12.31;70.26
26865;BME280;40618;51.166;10.322;2023-04-23T04:12:13;96587.25;;;12.27;70.56
26865;BME280;40618;51.166;10.322;2023-04-23T04:14:40;96590.75;;;12.26;70.89
26865;BME280;40618;51.166;10.322;2023-04-23T04:17:06;96588.59;;;12.16;70.54
26865;BME280;40618;51.166;10.322;2023-04-23T04:19:33;96584.66;;;12.09;70.78
26865;BME280;40618;51.166;10.322;2023-04-23T04:21:59;96596.88;;;12.07;70.79
26865;BME280;40618;51.166;10.322;2023-04-23T04:24:27;96588.63;;;11.99;71.06
26865;BME280;40618;51.166;10.322;2023-04-23T04:26:59;96586.03;;;11.99;71.31
26865;BME280;40618;51.166;10.322;2023-04-23T04:29:26;96586.63;;;12.04;71.55
26865;BME280;40618;51.166;10.322;2023-04-23T04:31:55;96596.41;;;11.99;70.96
26865;BME280;40618;51.166;10.322;2023-04-23T04:34:20;96608.03;;;11.90;71.41
26865;BME280;40618;51.166;10.322;2023-04-23T04:36:46;96630.38;;;11.75;71.26
26865;BME280;40618;51.166;10.322;2023-04-23T04:39:12;96630.72;;;11.50;71.80
26865;BME280;40618;51.166;10.322;2023-04-23T04:41:39;96642.84;;;11.30;71.91
26865;BME280;40618;51.166;10.322;2023-04-23T04:44:07;96651.38;;;11.13;71.93
26865;BME280;40618;51.166;10.322;2023-04-23T04:46:33;96665.78;;;11.00;71.72
26865;BME280;40618;51.166;10.322;2023-04-23T04:49:05;96650.28;;;10.79;71.70
26865;BME280;40618;51.166;10.322;2023-04-23T04:51:33;96658.41;;;10.72;72.37
26865;BME280;40618;51.166;10.322;2023-04-23T04:53:58;96656.72;;;10.71;71.62
26865;BME280;40618;51.166;10.322;2023-04-23T04:56:24;96661.97;;;10.69;72.00
26865;BME280;40618;51.166;10.322;2023-04-23T04:58:50;96647.53;;;10.63;71.75
26865;BME280;40618;51.166;10.322;2023-04-23T05:01:16;96657.75;;;10.66;72.18
26865;BME280;40618;51.166;10.322;2023-04-23T05:03:43;96656.47;;;10.56;72.08
26865;BME280;40618;51.166;10.322;2023-04-23T05:06:09;96647.34;;;10.47;71.72
26865;BME280;40618;51.166;10.322;2023-04-23T05:08:35;96654.09;;;10.52;71.43
26865;BME280;40618;51.166;10.322;2023-04-23T05:11:00;96655.88;;;10.49;72.08
26865;BME280;40618;51.166;10.322;2023-04-23T05:13:28;96657.13;;;10.41;72.09
26865;BME280;40618;51.166;10.322;2023-04-23T05:15:53;96655.28;;;10.43;71.80
26865;BME280;40618;51.166;10.322;2023-04-23T05:18:19;96664.81;;;10.42;72.10
26865;BME280;40618;51.166;10.322;2023-04-23T05:20:45;96657.88;;;10.43;71.50
26865;BME280;40618;51.166;10.322;2023-04-23T05:23:11;96662.16;;;10.44;71.84
26865;BME280;40618;51.166;10.322;2023-04-23T05:25:36;96650.78;;;10.48;71.75
26865;BME280;40618;51.166;10.322;2023-04-23T05:28:02;96658.81;;;10.42;71.68
26865;BME280;40618;51.166;10.322;2023-04-23T05:30:28;96666.81;;;10.36;71.66
26865;BME280;40618;51.166;10.322;2023-04-23T05:32:54;96661.81;;;10.31;71.61
26865;BME280;40618;51.166;10.322;2023-04-23T05:35:20;96665.72;;;10.41;71.78
26865;BME280;40618;51.166;10.322;2023-04-23T05:37:45;96675.56;;;10.54;72.53
26865;BME280;40618;51.166;10.322;2023-04-23T05:40:11;96670.06;;;10.61;72.02
26865;BME280;40618;51.166;10.322;2023-04-23T05:42:37;96666.28;;;10.69;72.47
26865;BME280;40618;51.166;10.322;2023-04-23T05:45:03;96674.13;;;10.67;71.49
26865;BME280;40618;51.166;10.322;2023-04-23T05:47:29;96678.84;;;10.57;71.44
26865;BME280;40618;51.166;10.322;2023-04-23T05:49:55;96669.28;;;10.59;72.08
26865;BME280;40618;51.166;10.322;2023-04-23T05:52:25;96674.19;;;10.65;71.66
26865;BME280;40618;51.166;10.322;2023-04-23T05:54:51;96674.13;;;10.67;71.48
26865;BME280;40618;51.166;10.322;2023-04-23T05:57:17;96673.09;;;10.71;71.60
26865;BME280;40618;51.166;10.322;2023-04-23T05:59:42;96682.41;;;10.75;71.64
26865;BME280;40618;51.166;10.322;2023-04-23T06:02:09;96681.81;;;10.69;71.53
26865;BME280;40618;51.166;10.322;2023-04-23T06:04:35;96680.91;;;10.70;71.70
26865;BME280;40618;51.166;10.322;2023-04-23T06:07:02;96680.09;;;10.69;71.45
26865;BME280;40618;51.166;10.322;2023-04-23T06:09:28;96678.41;;;10.68;72.08
26865;BME280;40618;51.166;10.322;2023-04-23T06:11:53;96679.81;;;10.75;71.96
26865;BME280;40618;51.166;10.322;2023-04-23T06:14:19;96684.66;;;10.83;72.16
26865;BME280;40618;51.166;10.322;2023-04-23T06:16:45;96677.41;;;10.91;72.31
26865;BME280;40618;51.166;10.322;2023-04-23T06:19:11;96688.66;;;10.90;72.29
26865;BME280;40618;51.166;10.322;2023-04-23T06:21:36;96683.56;;;10.89;71.69
26865;BME280;40618;51.166;10.322;2023-04-23T06:24:04;96694.63;;;10.92;71.98
26865;BME280;40618;51.166;10.322;2023-04-23T06:26:31;96691.00;;;10.96;72.20
26865;BME280;40618;51.166;10.322;2023-04-23T06:28:57;96685.59;;;11.01;71.77
26865;BME280;40618;51.166;10.322;2023-04-23T06:31:22;96685.38;;;11.06;71.78
26865;BME280;40618;51.166;10.322;2023-04-23T06:33:48;96695.75;;;11.06;71.75
26865;BME280;40618;51.166;10.322;2023-04-23T06:36:14;96697.38;;;11.08;72.02
26865;BME280;40618;51.166;10.322;2023-04-23T06:38:39;96703.03;;;10.97;72.24
26865;BME280;40618;51.166;10.322;2023-04-23T06:41:05;96707.69;;;10.89;72.41
26865;BME280;40618;51.166;10.322;2023-04-23T06:43:31;96701.47;;;10.93;72.36
26865;BME280;40618;51.166;10.322;2023-04-23T06:45:58;96700.50;;;10.96;71.94
26865;BME280;40618;51.166;10.322;2023-04-23T06:48:24;96700.50;;;10.96;72.22
26865;BME280;40618;51.166;10.322;2023-04-23T06:50:50;96691.25;;;10.90;72.48
26865;BME280;40618;51.166;10.322;2023-04-23T06:53:16;96693.09;;;10.88;72.57
26865;BME280;40618;51.166;10.322;2023-04-23T06:55:42;96692.88;;;10.93;72.11
26865;BME280;40618;51.166;10.322;2023-04-23T06:58:08;96687.44;;;10.99;72.91
26865;BME280;40618;51.166;10.322;2023-04-23T07:00:34;96683.72;;;11.05;72.90
26865;BME280;40618;51.166;10.322;2023-04-23T07:02:59;96679.44;;;11.04;72.62
26865;BME280;40618;51.166;10.322;2023-04-23T07:05:25;96677.44;;;11.10;72.52
26865;BME280;40618;51.166;10.322;2023-04-23T07:07:51;96690.03;;;11.18;72.26
26865;BME280;40618;51.166;10.322;2023-04-23T07:10:17;96682.25;;;11.18;72.68
26865;BME280;40618;51.166;10.322;2023-04-23T07:12:43;96690.47;;;11.28;72.42
26865;BME280;40618;51.166;10.322;2023-04-23T07:15:09;96684.81;;;11.39;72.83
26865;BME280;40618;51.166;10.322;2023-04-23T07:17:35;96689.69;;;11.45;72.54
26865;BME280;40618;51.166;10.322;2023-04-23T07:20:01;96689.63;;;11.46;72.23
26865;BME280;40618;51.166;10.322;2023-04-23T07:22:31;96689.34;;;11.52;72.37
26865;BME280;40618;51.166;10.322;2023-04-23T07:24:57;96693.09;;;11.83;72.70
26865;BME280;40618;51.166;10.322;2023-04-23T07:27:23;96676.31;;;12.27;72.77
26865;BME280;40618;51.166;10.322;2023-04-23T07:29:49;96681.72;;;12.75;72.99
26865;BME280;40618;51.166;10.322;2023-04-23T07:32:15;96678.19;;;12.94;71.71
26865;BME280;40618;51.166;10.322;2023-04-23T07:34:41;96678.97;;;12.78;71.19
26865;BME280;40618;51.166;10.322;2023-04-23T07:37:06;96689.38;;;12.61;71.31
26865;BME280;40618;51.166;10.322;2023-04-23T07:39:32;96688.47;;;12.44;71.27
26865;BME280;40618;51.166;10.322;2023-04-23T07:41:59;96688.94;;;12.35;71.34
26865;BME280;40618;51.166;10.322;2023-04-23T07:44:26;96689.16;;;12.30;71.30
26865;BME280;40618;51.166;10.322;2023-04-23T07:46:51;96682.03;;;12.34;71.20
26865;BME280;40618;51.166;10.322;2023-04-23T07:49:17;96680.16;;;12.38;71.19
26865;BME280;40618;51.166;10.322;2023-04-23T07:51:43;96679.91;;;12.42;71.35
26865;BME280;40618;51.166;10.322;2023-04-23T07:54:08;96683.66;;;12.54;71.09
26865;BME280;40618;51.166;10.322;2023-04-23T07:56:34;96680.06;;;12.57;70.80
26865;BME280;40618;51.166;10.322;2023-04-23T07:59:00;96690.47;;;12.57;70.58
26865;BME280;40618;51.166;10.322;2023-04-23T08:01:26;96686.09;;;12.57;70.62
26865;BME280;40618;51.166;10.322;2023-04-23T08:03:52;96676.66;;;12.56;70.28
26865;BME280;40618;51.166;10.322;2023-04-23T08:06:20;96681.34;;;12.65;70.23
26865;BME280;40618;51.166;10.322;2023-04-23T08:08:48;96673.72;;;12.80;70.22
26865;BME280;40618;51.166;10.322;2023-04-23T08:11:14;96673.63;;;12.81;70.27
26865;BME280;40618;51.166;10.322;2023-04-23T08:13:40;96676.19;;;12.99;70.15
26865;BME280;40618;51.166;10.322;2023-04-23T08:16:06;96672.16;;;13.09;69.82
26865;BME280;40618;51.166;10.322;2023-04-23T08:18:31;96666.50;;;13.18;69.88
26865;BME280;40618;51.166;10.322;2023-04-23T08:20:57;96664.91;;;13.32;69.46
26865;BME280;40618;51.166;10.322;2023-04-23T08:23:23;96654.34;;;13.35;69.29
26865;BME280;40618;51.166;10.322;2023-04-23T08:25:49;96644.22;;;13.30;69.09
26865;BME280;40618;51.166;10.322;2023-04-23T08:28:14;96650.66;;;13.23;69.09
26865;BME280;40618;51.166;10.322;2023-04-23T08:30:40;96660.91;;;13.26;68.85
26865;BME280;40618;51.166;10.322;2023-04-23T08:33:06;96657.28;;;13.29;69.08
26865;BME280;40618;51.166;10.322;2023-04-23T08:35:31;96666.88;;;13.44;68.70
26865;BME280;40618;51.166;10.322;2023-04-23T08:37:57;96672.09;;;13.44;68.24
26865;BME280;40618;51.166;10.322;2023-04-23T08:40:23;96672.81;;;13.30;68.05
26865;BME280;40618;51.166;10.322;2023-04-23T08:42:57;96666.69;;;13.31;68.47
26865;BME280;40618;51.166;10.322;2023-04-23T08:45:28;96661.94;;;13.40;67.90
26865;BME280;40618;51.166;10.322;2023-04-23T08:47:58;96673.19;;;13.40;68.06
26865;BME280;40618;51.166;10.322;2023-04-23T08:50:27;96681.09;;;13.54;68.27
26865;BME280;40618;51.166;10.322;2023-04-23T08:52:55;96677.03;;;13.65;67.62
26865;BME280;40618;51.166;10.322;2023-04-23T08:55:23;96680.97;;;13.72;67.98
26865;BME280;40618;51.166;10.322;2023-04-23T08:57:50;96676.19;;;13.80;67.60
26865;BME280;40618;51.166;10.322;2023-04-23T09:00:18;96675.84;;;13.86;67.67
26865;BME280;40618;51.166;10.322;2023-04-23T09:02:46;96672.84;;;13.94;67.26
26865;BME280;40618;51.166;10.322;2023-04-23T09:05:13;96670.16;;;13.96;67.21
26865;BME280;40618;51.166;10.322;2023-04-23T09:07:40;96667.38;;;13.99;66.80
26865;BME280;40618;51.166;10.322;2023-04-23T09:10:07;96658.78;;;13.97;66.86
26865;BME280;40618;51.166;10.322;2023-04-23T09:12:37;96661.38;;;13.97;66.43
26865;BME280;40618;51.166;10.322;2023-04-23T09:15:05;96664.63;;;13.86;66.59
26865;BME280;40618;51.166;10.322;2023-04-23T09:17:37;96660.25;;;13.70;66.27
26865;BME280;40618;51.166;10.322;2023-04-23T09:20:05;96659.75;;;13.64;66.47
26865;BME280;40618;51.166;10.322;2023-04-23T09:22:50;96656.13;;;13.82;66.82
26865;BME280;40618;51.166;10.322;2023-04-23T09:25:21;96650.66;;;14.03;66.49
26865;BME280;40618;51.166;10.322;2023-04-23T09:27:49;96642.75;;;14.04;66.26
26865;BME280;40618;51.166;10.322;2023-04-23T09:30:16;96643.81;;;14.16;66.24
26865;BME280;40618;51.166;10.322;2023-04-23T09:32:43;96640.66;;;14.56;66.21
26865;BME280;40618;51.166;10.322;2023-04-23T09:35:15;96630.84;;;14.76;65.72
26865;BME280;40618;51.166;10.322;2023-04-23T09:37:45;96636.81;;;14.78;65.90
26865;BME280;40618;51.166;10.322;2023-04-23T09:40:15;96634.00;;;14.95;65.97
26865;BME280;40618;51.166;10.322;2023-04-23T09:42:50;96635.19;;;15.18;65.20
26865;BME280;40618;51.166;10.322;2023-04-23T09:45:18;96657.66;;;15.06;65.14
26865;BME280;40618;51.166;10.322;2023-04-23T09:47:51;96656.72;;;15.07;65.03
26865;BME280;40618;51.166;10.322;2023-04-23T09:50:38;96654.50;;;15.01;64.57
26865;BME280;40618;51.166;10.322;2023-04-23T09:53:06;96652.72;;;15.02;64.58
26865;BME280;40618;51.166;10.322;2023-04-23T09:55:35;96651.22;;;14.98;64.41
26865;BME280;40618;51.166;10.322;2023-04-23T09:58:04;96653.84;;;14.83;64.32
26865;BME280;40618;51.166;10.322;2023-04-23T10:00:35;96654.84;;;14.81;64.05
26865;BME280;40618;51.166;10.322;2023-04-23T10:03:03;96651.69;;;14.76;64.12
26865;BME280;40618;51.166;10.322;2023-04-23T10:05:30;96646.75;;;14.71;63.90
26865;BME280;40618;51.166;10.322;2023-04-23T10:07:56;96644.41;;;14.66;64.09
26865;BME280;40618;51.166;10.322;2023-04-23T10:10:23;96629.84;;;14.62;63.88
26865;BME280;40618;51.166;10.322;2023-04-23T10:12:51;96632.34;;;14.94;64.51
26865;BME280;40618;51.166;10.322;2023-04-23T10:15:18;96630.41;;;15.39;64.33
26865;BME280;40618;51.166;10.322;2023-04-23T10:17:45;96629.53;;;15.68;64.01
26865;BME280;40618;51.166;10.322;2023-04-23T10:20:13;96626.50;;;15.74;63.18
26865;BME280;40618;51.166;10.322;2023-04-23T10:22:43;96629.91;;;15.62;63.12
26865;BME280;40618;51.166;10.322;2023-04-23T10:25:11;96635.78;;;15.51;62.72
26865;BME280;40618;51.166;10.322;2023-04-23T10:27:39;96627.38;;;15.60;63.10
26865;BME280;40618;51.166;10.322;2023-04-23T10:30:07;96630.59;;;15.78;62.90
26865;BME280;40618;51.166;10.322;2023-04-23T10:32:35;96625.47;;;15.91;62.55
26865;BME280;40618;51.166;10.322;2023-04-23T10:35:01;96630.22;;;16.24;62.37
26865;BME280;40618;51.166;10.322;2023-04-23T10:37:27;96626.09;;;16.35;61.65
26865;BME280;40618;51.166;10.322;2023-04-23T10:39:55;96625.28;;;16.07;61.15
26865;BME280;40618;51.166;10.322;2023-04-23T10:42:28;96637.97;;;15.86;61.60
26865;BME280;40618;51.166;10.322;2023-04-23T10:44:55;96628.56;;;15.69;61.60
26865;BME280;40618;51.166;10.322;2023-04-23T10:47:22;96629.06;;;15.61;61.59
26865;BME280;40618;51.166;10.322;2023-04-23T10:49:48;96619.13;;;15.53;61.31
26865;BME280;40618;51.166;10.322;2023-04-23T10:52:15;96616.88;;;15.47;61.46
26865;BME280;40618;51.166;10.322;2023-04-23T10:54:47;96617.06;;;15.44;61.28
26865;BME280;40618;51.166;10.322;2023-04-23T10:57:15;96608.03;;;15.50;61.52
26865;BME280;40618;51.166;10.322;2023-04-23T10:59:51;96609.03;;;15.62;61.44
26865;BME280;40618;51.166;10.322;2023-04-23T11:02:18;96597.34;;;15.67;61.62
26865;BME280;40618;51.166;10.322;2023-04-23T11:04:46;96607.41;;;15.73;61.06
26865;BME280;40618;51.166;10.322;2023-04-23T11:07:19;96604.59;;;15.77;61.27
26865;BME280;40618;51.166;10.322;2023-04-23T11:09:48;96604.31;;;15.81;60.74
26865;BME280;40618;51.166;10.322;2023-04-23T11:14:51;96611.78;;;15.73;60.60
26865;BME280;40618;51.166;10.322;2023-04-23T11:20:13;96606.81;;;15.55;59.70
26865;BME280;40618;51.166;10.322;2023-04-23T11:22:51;96604.22;;;15.55;59.94
26865;BME280;40618;51.166;10.322;2023-04-23T11:25:24;96601.97;;;15.49;59.16
26865;BME280;40618;51.166;10.322;2023-04-23T11:27:53;96601.53;;;15.43;59.34
26865;BME280;40618;51.166;10.322;2023-04-23T11:30:25;96601.84;;;15.38;59.49
26865;BME280;40618;51.166;10.322;2023-04-23T11:32:55;96601.06;;;15.36;58.90
26865;BME280;40618;51.166;10.322;2023-04-23T11:35:22;96597.09;;;15.30;59.40
26865;BME280;40618;51.166;10.322;2023-04-23T11:37:52;96598.66;;;15.33;59.41
26865;BME280;40618;51.166;10.322;2023-04-23T11:40:20;96588.03;;;15.36;59.45
26865;BME280;40618;51.166;10.322;2023-04-23T11:42:48;96584.59;;;15.35;59.89
26865;BME280;40618;51.166;10.322;2023-04-23T11:45:25;96587.94;;;15.37;59.92
26865;BME280;40618;51.166;10.322;2023-04-23T11:47:54;96582.44;;;15.42;59.83
26865;BME280;40618;51.166;10.322;2023-04-23T11:50:25;96581.31;;;15.46;59.90
26865;BME280;40618;51.166;10.322;2023-04-23T11:52:53;96569.66;;;15.65;59.70
26865;BME280;40618;51.166;10.322;2023-04-23T11:55:19;96561.34;;;15.87;59.69
26865;BME280;40618;51.166;10.322;2023-04-23T11:57:47;96559.78;;;15.97;59.33
26865;BME280;40618;51.166;10.322;2023-04-23T12:00:21;96555.91;;;16.03;59.11
26865;BME280;40618;51.166;10.322;2023-04-23T12:02:59;96556.13;;;16.13;58.93
26865;BME280;40618;51.166;10.322;2023-04-23T12:05:31;96560.25;;;16.30;58.97
26865;BME280;40618;51.166;10.322;2023-04-23T12:08:16;96554.59;;;16.49;59.03
26865;BME280;40618;51.166;10.322;2023-04-23T12:13:19;96545.81;;;16.63;58.43
26865;BME280;40618;51.166;10.322;2023-04-23T12:15:51;96543.38;;;16.72;58.61
26865;BME280;40618;51.166;10.322;2023-04-23T12:18:26;96540.03;;;16.83;58.14
26865;BME280;40618;51.166;10.322;2023-04-23T12:20:52;96538.97;;;16.86;57.89
26865;BME280;40618;51.166;10.322;2023-04-23T12:23:18;96533.13;;;16.82;57.78
26865;BME280;40618;51.166;10.322;2023-04-23T12:25:52;96543.91;;;16.78;57.73
26865;BME280;40618;51.166;10.322;2023-04-23T12:28:22;96537.00;;;16.77;57.58
26865;BME280;40618;51.166;10.322;2023-04-23T12:30:48;96536.91;;;16.78;57.46
26865;BME280;40618;51.166;10.322;2023-04-23T12:33:14;96532.41;;;16.80;57.19
26865;BME280;40618;51.166;10.322;2023-04-23T12:35:48;96527.38;;;16.77;57.17
26865;BME280;40618;51.166;10.322;2023-04-23T12:38:28;96526.88;;;16.72;57.25
26865;BME280;40618;51.166;10.322;2023-04-23T12:40:55;96528.03;;;16.68;57.40
26865;BME280;40618;51.166;10.322;2023-04-23T12:43:23;96530.75;;;16.66;56.75
26865;BME280;40618;51.166;10.322;2023-04-23T12:45:50;96532.53;;;16.66;56.83
26865;BME280;40618;51.166;10.322;2023-04-23T12:48:17;96526.59;;;16.64;56.63
26865;BME280;40618;51.166;10.322;2023-04-23T12:50:46;96531.41;;;16.57;56.37
26865;BME280;40618;51.166;10.322;2023-04-23T12:53:13;96529.19;;;16.51;56.75
26865;BME280;40618;51.166;10.322;2023-04-23T12:55:39;96524.94;;;16.50;56.88
26865;BME280;40618;51.166;10.322;2023-04-23T12:58:07;96529.53;;;16.46;56.44